KDNS/DNS METAR and TAF weather

Enter ICAO airport designator
Station Type Date Time Source
KDNS METAR 2020/11/27 03:35 UTC NOAA

KDNS 270335Z AUTO 30005KT 9SM OVC013 01/01 A3012 RMK AO2


Station Type Date Time Source
KDNS Decoded METAR 2020/11/27 03:35 UTC NOAA

Denison, IA, United States (KDNS) 41-59N 095-23W
Nov 26, 2020 - 10:35 PM EST / 2020.11.27 0335 UTC
Wind: from the WNW (300 degrees) at 6 MPH (5 KT):0
Visibility: 9 mile(s):0
Sky conditions: overcast
Temperature: 33 F (1 C)
Windchill: 26 F (-3 C):1
Dew Point: 33 F (1 C)
Relative Humidity: 100%
Pressure (altimeter): 30.12 in. Hg (1019 hPa)
ob: KDNS 270335Z AUTO 30005KT 9SM OVC013 01/01 A3012 RMK AO2
cycle: 3

Station Type Date Time Source
KDNS TAF UTC NOAA

Error!

Example: see airport list